• Join FlightAware (Why Join?)
  • Login
  • US Flag 
06:02AM EDT


 

Airport Tracker/Info


-or-


 

Live Flight TrackerFlight Track Log ✈ SWA2322 ✈ 15-Apr-2013 ✈ KCHS - KBWI

Flight Track Log - Related Links

Times and Time Zones

All times are in EDT time to prevent confusion due to time zone crossing. See the SWA2322 flight status page for this flight to view local times or setup timezone preferences in your user account.

Time Position Orientation Groundspeed Altitude Reporting Facility
EDT Latitude Longitude Course Direction KTS MPH feet Rate Location/Type
01:13PM 33.0228 -80.0014 North 245 282 4,700  Level Jacksonville Center
01:14PM 33.0931 -79.9742 18° North 250 288 7,800 3,000 Climbing Jacksonville Center
01:15PM 33.1628 -79.9225 32° Northeast 269 310 10,700 2,700 Climbing Jacksonville Center
01:16PM 33.2408 -79.8628 33° Northeast 298 343 13,200 2,940 Climbing Jacksonville Center
01:17PM 33.3242 -79.9046 23° Northeast  Level FlightAware Approximate
01:17PM 33.3269 -79.7978 32° Northeast 333 383 16,600  Level Jacksonville Center
01:18PM 33.4111 -79.8745 North  Level FlightAware Approximate
01:18PM 33.4150 -79.7322 32° Northeast 356 410 19,300  Level Jacksonville Center
01:19PM 33.5092 -79.6592 33° Northeast 377 434 22,000 2,400 Climbing Jacksonville Center
01:20PM 33.6072 -79.5833 33° Northeast 400 460 24,200 2,100 Climbing Jacksonville Center
01:21PM 33.7097 -79.5072 32° Northeast 417 480 26,200 1,920 Climbing Jacksonville Center
01:22PM 33.8097 -79.4308 32° Northeast 431 496 28,100 2,100 Climbing Jacksonville Center
01:23PM 33.9200 -79.3464 32° Northeast 436 502 30,400 2,160 Climbing Jacksonville Center
01:24PM 34.0261 -79.2619 33° Northeast 447 514 32,500 1,740 Climbing Jacksonville Center
01:26PM 34.2758 -79.0675 33° Northeast 460 529 36,300 1,320 Climbing Washington Center
01:27PM 34.3908 -78.9819 32° Northeast 460 529 37,000 300 Climbing Washington Center
01:28PM 34.4975 -78.8981 33° Northeast 455 524 37,000  Level Washington Center
01:29PM 34.5894 -78.8211 35° Northeast 444 511 37,000  Level Washington Center
01:30PM 34.6894 -78.7417 33° Northeast 444 511 37,000 -120 Level Washington Center
01:31PM 34.8025 -78.6500 34° Northeast 444 511 36,800 -600 Descending Washington Center
01:32PM 34.8939 -78.5800 32° Northeast 438 504 35,900 -900 Descending Washington Center
01:33PM 34.9961 -78.4975 33° Northeast 438 504 35,100 -480 Descending Washington Center
01:34PM 35.0961 -78.4175 33° Northeast 433 498 35,000 -60 Descending Washington Center
01:35PM 35.1983 -78.3344 34° Northeast 433 498 35,000  Level Washington Center
01:36PM 35.3067 -78.2442 34° Northeast 433 498 35,000 -540 Level Washington Center
01:37PM 35.4164 -78.1842 24° Northeast 433 498 34,000 -1,020 Descending Washington Center
01:38PM 35.5261 -78.1367 19° North 416 479 33,000 -540 Descending Washington Center
01:39PM 35.6375 -78.0967 16° North 416 479 33,000  Level Washington Center
01:40PM 35.7469 -78.0514 19° North 411 473 33,000  Level Washington Center
01:41PM 35.8583 -78.0061 18° North 411 473 33,000  Level Washington Center
01:42PM 35.9719 -77.9608 18° North 411 473 33,000  Level Washington Center
01:43PM 36.0814 -77.9181 18° North 411 473 33,000 -660 Level Washington Center
01:44PM 36.1928 -77.8697 19° North 411 473 31,700 -1,860 Descending Washington Center
01:45PM 36.3022 -77.8239 19° North 411 473 29,300 -1,380 Descending Washington Center
01:46PM 36.4094 -77.7806 18° North 411 473 29,000 -180 Descending Washington Center
01:47PM 36.5125 -77.7369 19° North 406 467 29,000 -240 Level Washington Center
01:48PM 36.6194 -77.6958 17° North 401 461 28,600 -540 Descending Washington Center
01:49PM 36.7225 -77.6494 20° North 401 461 28,000 -300 Descending Washington Center
01:50PM 36.8233 -77.6081 18° North 396 456 28,000 -180 Level Washington Center
01:51PM 36.9286 -77.5639 19° North 391 450 27,700 -540 Descending Washington Center
01:52PM 37.0314 -77.5197 19° North 409 471 27,000 -720 Descending Washington Center
01:53PM 37.1447 -77.4731 18° North 420 483 26,300 -900 Descending Washington Center
01:54PM 37.2625 -77.4236 18° North 420 483 25,300 -1,080 Descending Washington Center
01:55PM 37.3758 -77.3742 19° North 420 483 24,200 -1,080 Descending Washington Center
01:56PM 37.4869 -77.3272 19° North 420 483 23,200 -600 Descending Washington Center
01:57PM 37.5958 -77.3008 11° North 414 476 23,000 -120 Descending Washington Center
01:58PM 37.7089 -77.2769 North 407 468 23,000  Level Washington Center
01:59PM 37.8217 -77.2558 North 407 468 23,000  Level Washington Center
02:00PM 37.9347 -77.2319 North 407 468 23,000  Level Washington Center
02:01PM 38.0225 -77.2128 10° North 407 468 23,000 -1,200 Level Washington Center
02:02PM 38.1481 -77.1864 North 407 468 20,700 -2,580 Descending Washington Center
02:03PM 38.2631 -77.1625 North 399 459 17,900 -2,520 Descending Washington Center
02:04PM 38.3572 -77.1433 North 382 440 15,700 -1,560 Descending Washington Center
02:05PM 38.4561 -77.0739 29° Northeast 371 427 14,900 -1,800 Descending Washington Center
02:06PM 38.5156 -76.9767 52° Northeast 355 409 12,100 -1,980 Descending Washington Center
02:07PM 38.5811 -76.8983 43° Northeast 362 417 11,000 -900 Descending Washington Center
02:08PM 38.6633 -76.8014 43° Northeast 345 397 10,400 -840 Descending Washington Center
02:09PM 38.7183 -76.7172 50° Northeast 323 372 9,400 -1,440 Descending Washington Center
02:11PM 38.7833 -76.5500 63° Northeast 283 326 6,500 -1,260 Descending Potomac TRACON
02:12PM 38.8500 -76.5333 11° North 285 328 6,000 -480 Descending Potomac TRACON
02:13PM 38.9333 -76.5667 343° North 278 320 5,600 -720 Descending Potomac TRACON
02:14PM 38.9833 -76.6333 314° West 276 318 4,600 -840 Descending Potomac TRACON
02:15PM 39.0167 -76.7167 297° West 260 299 4,000 -300 Descending Potomac TRACON
02:16PM 39.0667 -76.7833 314° West 244 281 4,000 -360 Level Potomac TRACON
02:17PM 39.1000 -76.8333 311° West 239 275 3,400 -840 Descending Potomac TRACON
02:18PM 39.1500 -76.8167 14° North 210 242 2,500 -960 Descending Potomac TRACON
02:19PM 39.1833 -76.7667 49° Northeast 160 184 1,500 -960 Descending Potomac TRACON
02:20PM 39.1833 -76.7167 90° East 127 146 600 -900 Descending Potomac TRACON
02:22PM 39.1667 -76.6667 339° North  Level FlightAware Approximate
02:29PM 39.1754 -76.6683 339° North  Level Estimated
02:30PM 39.1754 -76.6683 339° North  Level Estimated
02:31PM 39.1754 -76.6683 339° North  Level Estimated